Time;durP1;ratioP1;P1;durP2;ratioP2;P2;SDS_P1;SDS_P2;PMS_P1;PMS_P2;Temp;Humidity;BMP_temperature;BMP_pressure;BME280_temperature;BME280_humidity;BME280_pressure;Samples;Min_cycle;Max_cycle;Signal;HPM_P1;HPM_P2
2022/12/07 00:01:28;;;;;;;1.85;0.40;;;4.00;99.90;;;;;;5009814;28;20120;-41
2022/12/07 00:04:04;;;;;;;1.88;0.40;;;4.00;99.90;;;;;;4992658;28;20148;-40
2022/12/07 00:06:33;;;;;;;4.45;0.55;;;4.00;99.90;;;;;;4990836;28;20053;-42
2022/12/07 00:08:59;;;;;;;7.45;0.57;;;4.00;99.90;;;;;;5008493;28;20038;-41
2022/12/07 00:11:25;;;;;;;3.15;0.40;;;3.90;99.90;;;;;;5008319;28;20044;-41
2022/12/07 00:13:56;;;;;;;2.97;0.20;;;3.90;99.90;;;;;;5009091;28;20042;-41
2022/12/07 00:16:24;;;;;;;5.40;0.43;;;3.90;99.90;;;;;;5005090;28;20037;-41
2022/12/07 00:18:50;;;;;;;4.80;0.30;;;3.90;99.90;;;;;;5011306;28;20066;-41
2022/12/07 00:21:18;;;;;;;3.90;0.40;;;3.90;99.90;;;;;;5007680;28;20199;-42
2022/12/07 00:23:45;;;;;;;1.80;0.30;;;3.90;99.90;;;;;;5009753;28;20105;-42
2022/12/07 00:26:14;;;;;;;4.80;0.38;;;3.90;99.90;;;;;;5006255;28;20038;-39
2022/12/07 00:28:40;;;;;;;6.63;0.52;;;3.90;99.90;;;;;;5007524;28;20123;-40
2022/12/07 00:31:11;;;;;;;3.97;0.30;;;4.00;99.90;;;;;;5009444;28;20042;-40
2022/12/07 00:33:38;;;;;;;3.17;0.20;;;4.00;99.90;;;;;;5008361;28;20030;-41
2022/12/07 00:36:07;;;;;;;5.25;0.43;;;4.10;99.90;;;;;;5008049;28;20046;-40
2022/12/07 00:38:35;;;;;;;9.82;1.50;;;4.10;99.90;;;;;;5005949;28;20080;-41
2022/12/07 00:41:06;;;;;;;3.58;0.65;;;4.10;99.90;;;;;;4988418;28;20042;-40
2022/12/07 00:43:32;;;;;;;5.57;0.57;;;4.10;99.90;;;;;;5007051;28;20111;-44
2022/12/07 00:45:58;;;;;;;6.82;0.30;;;4.10;99.90;;;;;;5006091;28;20058;-42
2022/12/07 00:48:24;;;;;;;9.90;0.52;;;4.10;99.90;;;;;;4983971;28;20053;-40
2022/12/07 00:50:50;;;;;;;7.47;0.70;;;4.10;99.90;;;;;;5007407;28;20054;-38
2022/12/07 00:53:16;;;;;;;1.83;0.55;;;4.10;99.90;;;;;;5011699;28;20125;-41
2022/12/07 00:55:43;;;;;;;5.78;0.82;;;4.00;99.90;;;;;;5006887;28;20554;-41
2022/12/07 00:58:08;;;;;;;5.10;0.60;;;4.00;99.90;;;;;;5007709;28;20354;-41
2022/12/07 01:00:37;;;;;;;6.72;0.40;;;4.00;99.90;;;;;;5008128;28;20108;-42
2022/12/07 01:03:04;;;;;;;2.13;0.40;;;4.00;99.90;;;;;;5004531;28;20048;-42
2022/12/07 01:05:30;;;;;;;4.43;0.45;;;4.00;99.90;;;;;;5008584;28;20632;-41
2022/12/07 01:07:55;;;;;;;5.05;0.43;;;4.00;99.90;;;;;;5011035;28;20033;-40
2022/12/07 01:10:21;;;;;;;4.45;0.35;;;3.90;99.90;;;;;;5005071;28;20506;-40
2022/12/07 01:12:47;;;;;;;3.47;0.30;;;3.90;99.90;;;;;;5006788;28;20470;-40
2022/12/07 01:15:13;;;;;;;3.60;0.32;;;3.90;99.90;;;;;;5006531;28;20045;-41
2022/12/07 01:17:38;;;;;;;3.63;0.32;;;3.80;99.90;;;;;;5007640;28;20124;-40
2022/12/07 01:20:05;;;;;;;4.03;0.50;;;3.80;99.90;;;;;;5007334;28;20097;-40
2022/12/07 01:22:30;;;;;;;4.00;0.38;;;3.70;99.90;;;;;;5006063;28;20069;-39
2022/12/07 01:24:56;;;;;;;3.65;0.60;;;3.70;99.90;;;;;;5009677;28;20127;-41
2022/12/07 01:27:22;;;;;;;5.78;0.47;;;3.70;99.90;;;;;;5007713;28;20041;-41
2022/12/07 01:29:47;;;;;;;3.67;0.57;;;3.60;99.90;;;;;;5000150;28;20042;-40
2022/12/07 01:32:13;;;;;;;4.47;0.38;;;3.60;99.90;;;;;;5001636;28;20124;-43
2022/12/07 01:34:39;;;;;;;7.07;0.50;;;3.60;99.90;;;;;;4989707;28;20084;-40
2022/12/07 01:37:04;;;;;;;2.53;0.30;;;3.60;99.90;;;;;;5013418;28;20033;-41
2022/12/07 01:39:30;;;;;;;2.88;0.30;;;3.60;99.90;;;;;;5008637;28;20033;-41
2022/12/07 01:41:56;;;;;;;1.98;0.28;;;3.60;99.90;;;;;;5006187;28;20132;-42
2022/12/07 01:44:32;;;;;;;6.30;0.75;;;3.60;99.90;;;;;;5007524;28;20046;-41
2022/12/07 01:47:01;;;;;;;3.17;0.50;;;3.60;99.90;;;;;;5005413;28;20103;-40
2022/12/07 01:49:46;;;;;;;5.93;0.40;;;3.60;99.90;;;;;;5006966;28;20054;-39
2022/12/07 01:52:30;;;;;;;5.15;0.47;;;3.50;99.90;;;;;;5005796;28;20120;-40
2022/12/07 01:55:05;;;;;;;2.60;0.20;;;3.50;99.90;;;;;;5006053;28;20049;-41
2022/12/07 01:57:33;;;;;;;2.75;0.35;;;3.40;99.90;;;;;;5007199;28;20402;-42
2022/12/07 02:00:00;;;;;;;4.05;0.35;;;3.40;99.90;;;;;;4986663;28;20517;-41
2022/12/07 02:02:35;;;;;;;6.28;0.40;;;3.30;99.90;;;;;;5008415;28;20037;-40
2022/12/07 02:05:03;;;;;;;2.92;0.50;;;3.30;99.90;;;;;;5011759;28;20037;-42
2022/12/07 02:07:30;;;;;;;4.20;0.38;;;3.30;99.90;;;;;;5004957;28;20044;-40
2022/12/07 02:09:56;;;;;;;2.15;0.75;;;3.30;99.90;;;;;;4986811;28;20092;-39
2022/12/07 02:12:24;;;;;;;4.10;0.50;;;3.30;99.90;;;;;;5010310;28;20041;-39
2022/12/07 02:14:51;;;;;;;3.53;0.35;;;3.30;99.90;;;;;;5007651;28;20050;-40
2022/12/07 02:17:25;;;;;;;4.80;0.40;;;3.30;99.90;;;;;;5008001;28;20403;-43
2022/12/07 02:20:11;;;;;;;6.78;0.57;;;3.30;99.90;;;;;;5003169;28;20052;-40
2022/12/07 02:23:12;;;;;;;7.82;0.55;;;3.30;99.90;;;;;;5007642;28;20049;-42
2022/12/07 02:25:40;;;;;;;4.97;0.40;;;3.30;99.90;;;;;;5007424;28;20097;-42
2022/12/07 02:28:18;;;;;;;7.05;0.43;;;3.40;99.90;;;;;;5007223;28;20034;-43
2022/12/07 02:30:47;;;;;;;2.08;0.40;;;3.40;99.90;;;;;;5000776;28;20045;-40
2022/12/07 02:33:45;;;;;;;4.78;0.22;;;3.40;99.90;;;;;;5007669;28;20044;-40
2022/12/07 02:36:22;;;;;;;2.83;0.70;;;3.50;99.90;;;;;;5005416;28;20046;-40
2022/12/07 02:39:13;;;;;;;4.70;0.40;;;3.50;99.90;;;;;;5006456;28;20041;-41
2022/12/07 02:41:54;;;;;;;4.05;0.20;;;3.60;99.90;;;;;;5006528;28;20057;-40
2022/12/07 02:44:27;;;;;;;1.33;0.17;;;3.60;99.90;;;;;;5005659;28;20034;-45
2022/12/07 02:47:04;;;;;;;;;;;3.60;99.90;;;;;;4989131;28;20058;-42
2022/12/07 02:49:35;;;;;;;2.58;0.20;;;3.70;99.90;;;;;;5006116;28;19921;-41
2022/12/07 02:52:00;;;;;;;4.43;0.55;;;3.70;99.90;;;;;;5003517;28;20057;-45
2022/12/07 02:54:26;;;;;;;4.57;0.20;;;3.70;99.90;;;;;;4997354;28;20046;-40
2022/12/07 02:57:14;;;;;;;9.23;0.30;;;3.70;99.90;;;;;;5007519;28;20034;-42
2022/12/07 02:59:57;;;;;;;4.13;0.38;;;3.70;99.90;;;;;;5004658;28;20825;-40
2022/12/07 03:02:35;;;;;;;3.67;0.30;;;3.70;99.90;;;;;;5004813;28;20046;-42
2022/12/07 03:05:10;;;;;;;2.50;0.20;;;3.70;99.90;;;;;;5008366;28;20512;-41
2022/12/07 03:07:54;;;;;;;3.67;0.28;;;3.70;99.90;;;;;;5004796;28;20046;-43
2022/12/07 03:10:42;;;;;;;3.08;0.20;;;3.60;99.90;;;;;;5001579;28;20128;-44
2022/12/07 03:13:20;;;;;;;4.93;0.40;;;3.60;99.90;;;;;;5003028;28;20161;-40
2022/12/07 03:16:07;;;;;;;1.83;0.20;;;3.60;99.90;;;;;;5001019;28;20054;-41
2022/12/07 03:18:43;;;;;;;2.45;0.30;;;3.60;99.90;;;;;;5004620;28;20464;-41
2022/12/07 03:21:13;;;;;;;7.80;0.32;;;3.60;99.90;;;;;;5008038;28;20446;-39
2022/12/07 03:23:43;;;;;;;4.18;0.20;;;3.60;99.90;;;;;;5004282;28;20042;-42
2022/12/07 03:26:12;;;;;;;5.20;0.10;;;3.60;99.90;;;;;;5007454;28;20045;-42
2022/12/07 03:28:43;;;;;;;1.70;0.10;;;3.50;99.90;;;;;;5007492;28;20042;-42
2022/12/07 03:31:32;;;;;;;8.30;0.40;;;3.50;99.90;;;;;;5004897;28;20037;-43
2022/12/07 03:34:09;;;;;;;5.22;0.30;;;3.60;99.90;;;;;;5004613;28;20049;-40
2022/12/07 03:36:37;;;;;;;1.83;0.30;;;3.50;99.90;;;;;;5007189;28;20046;-41
2022/12/07 03:39:20;;;;;;;1.92;0.20;;;3.60;99.90;;;;;;5006546;28;20053;-41
2022/12/07 03:41:46;;;;;;;;;;;3.60;99.90;;;;;;5008156;28;20112;-42
2022/12/07 03:44:13;;;;;;;2.78;0.43;;;3.60;99.90;;;;;;5005606;28;19917;-40
2022/12/07 03:46:58;;;;;;;2.53;0.35;;;3.50;99.90;;;;;;5007517;28;20170;-42
2022/12/07 03:49:43;;;;;;;3.60;0.20;;;3.50;99.90;;;;;;5003164;28;20050;-39
2022/12/07 03:52:27;;;;;;;4.95;0.47;;;3.40;99.90;;;;;;5005787;28;20173;-41
2022/12/07 03:55:02;;;;;;;3.63;0.20;;;3.40;99.90;;;;;;5009312;28;20045;-39
2022/12/07 03:57:30;;;;;;;2.85;0.40;;;3.40;99.90;;;;;;5004626;28;20049;-41
2022/12/07 03:59:57;;;;;;;9.77;1.45;;;3.40;99.90;;;;;;5008127;28;20052;-42
2022/12/07 04:02:24;;;;;;;1.50;0.20;;;3.50;99.90;;;;;;5003135;28;20029;-43
2022/12/07 04:04:50;;;;;;;1.20;0.20;;;3.50;99.90;;;;;;5006985;28;20487;-40
2022/12/07 04:07:16;;;;;;;4.85;0.32;;;3.50;99.90;;;;;;5005241;28;20049;-42
2022/12/07 04:09:42;;;;;;;2.58;0.52;;;3.50;99.90;;;;;;5013978;28;20053;-41
2022/12/07 04:12:07;;;;;;;4.68;0.30;;;3.50;99.90;;;;;;5005406;28;20041;-44
2022/12/07 04:14:33;;;;;;;7.13;0.57;;;3.50;99.90;;;;;;5002325;28;20132;-41
2022/12/07 04:16:59;;;;;;;2.58;0.47;;;3.50;99.90;;;;;;5001650;28;20034;-39
2022/12/07 04:19:31;;;;;;;2.67;0.17;;;3.50;99.90;;;;;;5005859;28;20387;-40
2022/12/07 04:21:58;;;;;;;3.90;0.30;;;3.50;99.90;;;;;;5004562;28;20033;-41
2022/12/07 04:24:24;;;;;;;3.88;0.28;;;3.40;99.90;;;;;;5013862;28;20505;-39
2022/12/07 04:26:50;;;;;;;3.53;0.20;;;3.40;99.90;;;;;;5004535;28;20048;-40
2022/12/07 04:29:16;;;;;;;3.33;0.30;;;3.40;99.90;;;;;;5004658;28;20046;-40
2022/12/07 04:31:43;;;;;;;3.03;0.30;;;3.30;99.90;;;;;;5004574;28;20033;-40
2022/12/07 04:34:08;;;;;;;5.72;0.40;;;3.30;99.90;;;;;;5002460;28;20030;-41
2022/12/07 04:36:34;;;;;;;5.80;0.38;;;3.30;99.90;;;;;;5005268;28;20502;-40
2022/12/07 04:39:00;;;;;;;3.17;0.30;;;3.30;99.90;;;;;;5008399;28;20038;-42
2022/12/07 04:41:27;;;;;;;4.20;0.40;;;3.30;99.90;;;;;;5007119;28;20049;-42
2022/12/07 04:43:59;;;;;;;4.28;0.20;;;3.30;99.90;;;;;;4991165;28;20108;-42
2022/12/07 04:46:25;;;;;;;3.95;0.20;;;3.30;99.90;;;;;;5006121;28;20054;-41
2022/12/07 04:48:53;;;;;;;2.30;0.20;;;3.20;99.90;;;;;;4998097;28;20435;-42
2022/12/07 04:51:24;;;;;;;5.47;0.43;;;3.30;99.90;;;;;;5005499;28;20038;-39
2022/12/07 04:53:50;;;;;;;4.00;0.50;;;3.20;99.90;;;;;;5005859;28;20034;-40
2022/12/07 04:56:16;;;;;;;4.70;0.47;;;3.20;99.90;;;;;;5008134;28;20074;-40
2022/12/07 04:58:43;;;;;;;3.53;0.70;;;3.20;99.90;;;;;;5006338;28;20030;-42
2022/12/07 05:01:09;;;;;;;4.18;1.17;;;3.30;99.90;;;;;;5005589;28;20038;-42
2022/12/07 05:03:36;;;;;;;1.50;0.30;;;3.40;99.90;;;;;;5006876;28;20044;-42
2022/12/07 05:06:02;;;;;;;5.32;0.30;;;3.30;99.90;;;;;;4993187;28;20552;-42
2022/12/07 05:08:27;;;;;;;12.25;0.63;;;3.40;99.90;;;;;;5008150;28;20037;-40
2022/12/07 05:10:53;;;;;;;2.78;0.28;;;3.40;99.90;;;;;;5005834;28;20038;-42
2022/12/07 05:13:18;;;;;;;3.65;1.13;;;3.40;99.90;;;;;;5009139;28;20076;-42
2022/12/07 05:15:46;;;;;;;7.80;1.20;;;3.50;99.90;;;;;;5009064;28;20054;-39
2022/12/07 05:18:14;;;;;;;7.93;0.40;;;3.40;99.90;;;;;;5005358;28;20034;-42
2022/12/07 05:20:41;;;;;;;7.55;1.10;;;3.40;99.90;;;;;;5014691;28;20034;-42
2022/12/07 05:23:07;;;;;;;4.75;0.60;;;3.40;99.90;;;;;;5007488;28;20077;-43
2022/12/07 05:25:33;;;;;;;2.83;0.30;;;3.40;99.90;;;;;;5006968;28;20073;-42
2022/12/07 05:27:59;;;;;;;3.95;0.77;;;3.40;99.90;;;;;;5006481;28;20060;-41
2022/12/07 05:30:25;;;;;;;5.03;0.47;;;3.30;99.90;;;;;;5008539;28;20550;-41
2022/12/07 05:32:51;;;;;;;2.60;0.25;;;3.30;99.90;;;;;;4993478;28;20046;-40
2022/12/07 05:35:18;;;;;;;8.57;0.65;;;3.30;99.90;;;;;;5008020;28;20121;-41
2022/12/07 05:37:44;;;;;;;3.92;0.43;;;3.30;99.90;;;;;;5008805;28;20038;-43
2022/12/07 05:40:11;;;;;;;7.25;0.52;;;3.20;99.90;;;;;;5010380;28;20046;-41
2022/12/07 05:42:37;;;;;;;7.43;0.40;;;3.20;99.90;;;;;;5006497;28;20128;-43
2022/12/07 05:45:03;;;;;;;6.03;0.30;;;3.20;99.90;;;;;;5007115;28;20166;-43
2022/12/07 05:47:29;;;;;;;3.53;0.63;;;3.20;99.90;;;;;;5008091;28;20467;-42
2022/12/07 05:49:55;;;;;;;5.07;0.45;;;3.20;99.90;;;;;;5006538;28;20038;-42
2022/12/07 05:52:21;;;;;;;4.65;0.40;;;3.20;99.90;;;;;;5005677;28;20077;-42
2022/12/07 05:54:46;;;;;;;3.80;0.60;;;3.20;99.90;;;;;;5004637;28;20034;-42
2022/12/07 05:57:12;;;;;;;3.03;0.30;;;3.20;99.90;;;;;;4987614;28;20057;-46
2022/12/07 05:59:38;;;;;;;10.75;0.47;;;3.20;99.90;;;;;;5006462;28;20026;-40
2022/12/07 06:02:10;;;;;;;5.22;0.40;;;3.20;99.90;;;;;;4991285;28;20475;-43
2022/12/07 06:04:39;;;;;;;4.50;0.60;;;3.20;99.90;;;;;;5007162;28;20042;-40
2022/12/07 06:07:06;;;;;;;3.00;0.93;;;3.30;99.90;;;;;;5006407;28;20499;-43
2022/12/07 06:09:32;;;;;;;5.68;0.52;;;3.30;99.90;;;;;;5008778;28;20038;-41
2022/12/07 06:14:43;;;;;;;4.18;0.38;;;3.40;99.90;;;;;;5000495;28;20038;-41
2022/12/07 06:17:10;;;;;;;2.88;0.40;;;3.50;99.90;;;;;;5007639;28;20084;-42
2022/12/07 06:19:36;;;;;;;4.68;0.47;;;3.60;99.90;;;;;;5005412;28;20046;-42
2022/12/07 06:22:04;;;;;;;3.17;0.50;;;3.60;99.90;;;;;;4980228;28;20052;-39
2022/12/07 06:24:30;;;;;;;6.97;0.50;;;3.60;99.90;;;;;;5000308;28;20407;-42
2022/12/07 06:26:57;;;;;;;9.10;0.55;;;3.60;99.90;;;;;;5008835;28;20065;-43
2022/12/07 06:29:23;;;;;;;4.28;0.60;;;3.70;99.90;;;;;;5004669;28;20041;-39
2022/12/07 06:31:48;;;;;;;3.22;0.40;;;3.70;99.90;;;;;;5006023;28;20035;-43
2022/12/07 06:34:17;;;;;;;3.28;0.43;;;3.60;99.90;;;;;;4986130;28;20068;-40
2022/12/07 06:36:42;;;;;;;4.00;0.20;;;3.60;99.90;;;;;;5003522;28;20470;-40
2022/12/07 06:39:08;;;;;;;2.13;0.20;;;3.50;99.90;;;;;;5005328;28;20069;-40
2022/12/07 06:41:38;;;;;;;3.70;0.40;;;3.50;99.90;;;;;;5005665;28;20083;-40
2022/12/07 06:44:05;;;;;;;2.13;0.20;;;3.40;99.90;;;;;;5001708;28;21465;-39
2022/12/07 06:46:30;;;;;;;2.55;0.20;;;3.30;99.90;;;;;;4995858;28;20558;-48
2022/12/07 06:48:56;;;;;;;2.95;0.17;;;3.20;99.90;;;;;;5003672;28;20169;-40
2022/12/07 06:51:22;;;;;;;1.77;0.20;;;3.10;99.90;;;;;;5000714;28;20120;-43
2022/12/07 06:53:47;;;;;;;2.45;0.20;;;3.00;99.90;;;;;;5004121;28;20049;-41
2022/12/07 06:56:13;;;;;;;3.92;0.38;;;2.90;99.90;;;;;;5005090;28;20046;-40
2022/12/07 06:58:40;;;;;;;2.92;0.47;;;2.90;99.90;;;;;;5000965;28;20384;-39
2022/12/07 07:01:12;;;;;;;2.92;0.28;;;2.90;99.90;;;;;;4999755;28;20613;-41
2022/12/07 07:03:38;;;;;;;;;;;2.90;99.90;;;;;;4998082;28;20038;-40
2022/12/07 07:06:05;;;;;;;3.72;0.30;;;2.80;99.90;;;;;;5001545;28;20263;-39
2022/12/07 07:08:31;;;;;;;3.75;0.40;;;2.80;99.90;;;;;;5000858;28;20380;-40
2022/12/07 07:10:56;;;;;;;1.67;0.13;;;2.70;99.90;;;;;;5004492;28;20039;-40
2022/12/07 07:13:22;;;;;;;2.25;0.20;;;2.70;99.90;;;;;;4999044;28;20254;-39
2022/12/07 07:15:48;;;;;;;5.20;0.75;;;2.70;99.90;;;;;;4979017;28;20050;-41
2022/12/07 07:18:13;;;;;;;1.63;0.20;;;2.60;99.90;;;;;;5004902;28;20100;-43
2022/12/07 07:20:39;;;;;;;8.40;0.40;;;2.60;99.90;;;;;;4999822;28;20100;-39
2022/12/07 07:23:05;;;;;;;6.55;0.60;;;2.50;99.90;;;;;;4999117;28;20121;-42
2022/12/07 07:25:31;;;;;;;3.42;0.30;;;2.50;99.90;;;;;;5007226;28;20388;-41
2022/12/07 07:27:58;;;;;;;0.65;0.20;;;2.50;99.90;;;;;;5005442;28;20285;-39
2022/12/07 07:30:24;;;;;;;4.63;0.40;;;2.50;99.90;;;;;;5007335;28;20046;-40
2022/12/07 07:32:49;;;;;;;2.58;0.55;;;2.50;99.90;;;;;;5012675;28;20038;-41
2022/12/07 07:35:15;;;;;;;7.60;1.15;;;2.40;99.90;;;;;;5006965;28;20041;-41
2022/12/07 07:37:41;;;;;;;7.25;0.50;;;2.50;99.90;;;;;;5006284;28;20042;-39
2022/12/07 07:40:08;;;;;;;3.08;0.22;;;2.50;99.90;;;;;;5002212;28;20323;-38
2022/12/07 07:42:34;;;;;;;2.80;0.45;;;2.50;99.90;;;;;;5001587;28;20521;-41
2022/12/07 07:45:00;;;;;;;8.85;0.50;;;2.50;99.90;;;;;;4990023;28;20050;-43
2022/12/07 07:47:26;;;;;;;11.68;0.70;;;2.50;99.90;;;;;;5002245;28;20097;-43
2022/12/07 07:49:51;;;;;;;6.60;0.40;;;2.50;99.90;;;;;;4989002;28;21458;-42
2022/12/07 07:52:17;;;;;;;5.95;0.30;;;2.50;99.90;;;;;;5008634;28;20041;-39
2022/12/07 07:54:43;;;;;;;3.95;0.40;;;2.50;99.90;;;;;;5006844;28;20041;-40
2022/12/07 07:57:08;;;;;;;2.40;0.68;;;2.50;99.90;;;;;;5008201;28;20038;-41
2022/12/07 07:59:34;;;;;;;4.75;0.60;;;2.50;99.90;;;;;;5003308;28;20034;-38
2022/12/07 08:02:00;;;;;;;3.40;0.60;;;2.60;99.90;;;;;;5008022;28;20506;-40
2022/12/07 08:04:25;;;;;;;3.92;0.20;;;2.60;99.90;;;;;;5004007;28;20402;-40
2022/12/07 08:06:51;;;;;;;1.88;0.50;;;2.60;99.90;;;;;;5004097;28;20104;-38
2022/12/07 08:09:17;;;;;;;3.63;0.30;;;2.70;99.90;;;;;;5002767;28;20045;-41
2022/12/07 08:11:42;;;;;;;1.20;0.25;;;2.70;99.90;;;;;;5006639;28;20076;-41
2022/12/07 08:14:10;;;;;;;3.40;0.20;;;2.70;99.90;;;;;;5005279;28;20541;-42
2022/12/07 08:16:35;;;;;;;11.60;0.52;;;2.70;99.90;;;;;;5008537;28;20503;-39
2022/12/07 08:19:01;;;;;;;2.15;0.30;;;2.70;99.90;;;;;;5005764;28;20045;-40
2022/12/07 08:21:27;;;;;;;4.90;0.40;;;2.80;99.90;;;;;;5010293;28;20053;-40
2022/12/07 08:23:52;;;;;;;3.53;0.22;;;2.80;99.90;;;;;;5007749;28;20040;-41
2022/12/07 08:26:18;;;;;;;4.68;0.40;;;2.90;99.90;;;;;;5009170;28;20153;-45
2022/12/07 08:28:45;;;;;;;6.00;0.80;;;2.90;99.90;;;;;;4993312;28;20057;-42
2022/12/07 08:31:13;;;;;;;3.95;0.63;;;3.00;99.90;;;;;;5010574;28;20045;-42
2022/12/07 08:33:39;;;;;;;7.57;0.95;;;3.10;99.90;;;;;;5006350;28;20148;-41
2022/12/07 08:36:08;;;;;;;4.60;0.40;;;3.10;99.90;;;;;;5011963;28;20053;-39
2022/12/07 08:38:38;;;;;;;7.78;0.60;;;3.20;99.90;;;;;;5005661;28;20045;-41
2022/12/07 08:41:04;;;;;;;4.80;0.40;;;3.20;99.90;;;;;;5008568;28;20487;-43
2022/12/07 08:43:31;;;;;;;3.95;0.30;;;3.30;99.90;;;;;;5008806;28;20494;-42
2022/12/07 08:46:08;;;;;;;2.38;0.28;;;3.30;99.90;;;;;;5009918;28;20104;-40
2022/12/07 08:48:39;;;;;;;4.75;0.30;;;3.30;99.90;;;;;;5009016;28;20042;-40
2022/12/07 08:51:04;;;;;;;4.70;0.43;;;3.30;99.90;;;;;;5007888;28;20042;-42
2022/12/07 08:53:32;;;;;;;2.90;0.20;;;3.30;99.90;;;;;;5009563;28;20045;-40
2022/12/07 08:55:58;;;;;;;3.85;0.40;;;3.30;99.90;;;;;;5006059;28;20073;-45
2022/12/07 08:58:24;;;;;;;4.75;0.50;;;3.30;99.90;;;;;;5013241;28;20088;-42
2022/12/07 09:00:50;;;;;;;7.25;0.55;;;3.30;99.90;;;;;;5007327;28;20112;-42
2022/12/07 09:03:16;;;;;;;9.43;1.85;;;3.30;99.90;;;;;;5009099;28;20182;-43
2022/12/07 09:05:42;;;;;;;6.03;0.93;;;3.40;99.90;;;;;;5013039;28;20072;-43
2022/12/07 09:08:08;;;;;;;3.75;1.05;;;3.40;99.90;;;;;;5009816;28;20566;-40
2022/12/07 09:10:34;;;;;;;8.02;0.60;;;3.50;99.90;;;;;;5010393;28;20483;-42
2022/12/07 09:13:02;;;;;;;10.38;0.50;;;3.60;99.90;;;;;;5003691;28;20157;-42
2022/12/07 09:15:29;;;;;;;3.25;0.43;;;3.60;99.90;;;;;;5008977;28;20050;-42
2022/12/07 09:17:54;;;;;;;5.05;1.08;;;3.70;99.90;;;;;;5016123;28;20095;-42
2022/12/07 09:20:20;;;;;;;4.13;0.63;;;3.80;99.90;;;;;;5006947;28;20038;-39
2022/12/07 09:22:46;;;;;;;3.58;0.40;;;3.90;99.90;;;;;;5010953;28;20045;-40
2022/12/07 09:25:12;;;;;;;6.70;0.40;;;4.00;99.90;;;;;;5009680;28;20037;-41
2022/12/07 09:27:37;;;;;;;4.47;0.47;;;4.00;99.90;;;;;;5008353;28;20041;-40
2022/12/07 09:30:05;;;;;;;1.88;0.50;;;4.10;99.90;;;;;;5009209;28;20038;-40
2022/12/07 09:32:31;;;;;;;4.32;0.90;;;4.30;99.90;;;;;;4991956;28;20052;-41
2022/12/07 09:34:56;;;;;;;3.80;0.43;;;4.40;99.90;;;;;;5006994;28;20050;-42
2022/12/07 09:37:22;;;;;;;4.40;0.40;;;4.40;99.90;;;;;;5006766;28;20117;-41
2022/12/07 09:39:48;;;;;;;3.33;0.30;;;4.50;99.90;;;;;;5006646;28;20096;-39
2022/12/07 09:42:29;;;;;;;3.00;0.25;;;4.60;99.90;;;;;;5002910;28;20045;-42
2022/12/07 09:44:56;;;;;;;5.30;0.63;;;4.70;99.90;;;;;;5003728;28;20642;-42
2022/12/07 09:47:21;;;;;;;4.22;0.30;;;4.80;99.90;;;;;;5006238;28;20422;-41
2022/12/07 09:49:47;;;;;;;9.73;1.17;;;4.90;99.90;;;;;;5006060;28;20046;-40
2022/12/07 09:52:25;;;;;;;4.18;0.60;;;4.90;99.90;;;;;;4986562;28;20042;-40
2022/12/07 09:54:51;;;;;;;2.55;0.30;;;4.90;99.90;;;;;;5005789;28;20541;-40
2022/12/07 09:57:19;;;;;;;3.92;0.45;;;4.90;99.90;;;;;;5003131;28;20042;-42
2022/12/07 09:59:44;;;;;;;5.60;0.82;;;5.00;99.90;;;;;;5004884;28;20033;-42
2022/12/07 10:02:41;;;;;;;3.63;0.50;;;5.00;99.90;;;;;;5007341;28;20045;-41
2022/12/07 10:05:15;;;;;;;8.48;0.98;;;5.10;99.90;;;;;;5006211;28;20097;-40
2022/12/07 10:07:41;;;;;;;4.03;0.20;;;5.10;99.90;;;;;;4991549;28;20490;-42
2022/12/07 10:10:14;;;;;;;8.20;0.65;;;5.20;99.90;;;;;;5010643;28;20046;-41
2022/12/07 10:13:04;;;;;;;2.58;0.30;;;5.20;99.90;;;;;;5011315;28;20116;-42
2022/12/07 10:15:46;;;;;;;4.53;0.43;;;5.10;99.90;;;;;;4999087;28;20058;-42
2022/12/07 10:18:25;;;;;;;9.20;0.50;;;5.20;99.90;;;;;;5011953;28;20041;-42
2022/12/07 10:21:02;;;;;;;2.60;0.47;;;5.20;99.90;;;;;;5007555;28;20048;-41
2022/12/07 10:23:28;;;;;;;4.35;0.57;;;5.20;99.90;;;;;;5006322;28;20463;-40
2022/12/07 10:25:54;;;;;;;4.60;0.50;;;5.20;99.90;;;;;;4991048;28;20041;-42
2022/12/07 10:28:21;;;;;;;5.78;0.98;;;5.30;99.90;;;;;;5003707;28;20126;-40
2022/12/07 10:31:02;;;;;;;3.55;0.40;;;5.30;99.90;;;;;;5005147;28;20088;-40
2022/12/07 10:33:53;;;;;;;4.25;0.40;;;5.30;99.90;;;;;;5006766;28;20041;-42
2022/12/07 10:36:24;;;;;;;7.45;0.60;;;5.50;99.90;;;;;;5008929;28;20100;-42
2022/12/07 10:39:03;;;;;;;3.95;0.82;;;5.70;99.90;;;;;;5007163;28;20056;-44
2022/12/07 10:41:29;;;;;;;3.47;0.60;;;6.10;99.90;;;;;;5005370;28;20050;-45
2022/12/07 10:43:57;;;;;;;4.75;0.60;;;6.50;99.90;;;;;;5012682;28;20059;-42
2022/12/07 10:46:41;;;;;;;6.50;1.02;;;7.10;99.90;;;;;;5007536;28;20061;-42
2022/12/07 10:49:28;;;;;;;3.80;0.50;;;7.50;99.90;;;;;;5006268;28;20041;-41
2022/12/07 10:52:15;;;;;;;5.55;0.80;;;7.80;99.90;;;;;;5007439;28;20472;-41
2022/12/07 10:55:18;;;;;;;2.47;0.85;;;7.90;99.90;;;;;;5004497;28;20060;-42
2022/12/07 10:58:02;;;;;;;4.40;0.60;;;8.30;99.90;;;;;;5005925;28;20073;-40
2022/12/07 11:00:39;;;;;;;2.65;0.30;;;8.40;99.90;;;;;;5008008;28;20042;-40
2022/12/07 11:03:05;;;;;;;4.20;0.32;;;8.10;99.90;;;;;;5006062;28;20220;-44
2022/12/07 11:05:57;;;;;;;10.68;0.77;;;7.80;99.90;;;;;;5008673;28;20049;-42
2022/12/07 11:08:32;;;;;;;11.20;0.80;;;7.50;99.90;;;;;;5004690;28;20073;-39
2022/12/07 11:11:16;;;;;;;3.97;0.47;;;7.20;99.90;;;;;;5001372;28;20517;-42
2022/12/07 11:14:08;;;;;;;5.18;0.50;;;7.10;99.90;;;;;;5004658;28;20038;-41
2022/12/07 11:16:52;;;;;;;3.95;0.55;;;7.00;99.90;;;;;;4994889;28;20054;-41
2022/12/07 11:19:54;;;;;;;4.93;0.50;;;6.90;99.90;;;;;;5004594;28;20116;-41
2022/12/07 11:22:28;;;;;;;5.53;0.63;;;6.90;99.90;;;;;;5008698;28;20052;-40
2022/12/07 11:25:34;;;;;;;1.05;0.20;;;6.80;99.90;;;;;;5006357;28;20040;-41
2022/12/07 11:28:21;;;;;;;5.75;0.75;;;6.70;99.90;;;;;;4997799;28;20116;-40
2022/12/07 11:31:11;;;;;;;2.22;0.73;;;6.60;99.90;;;;;;5008231;28;20037;-43
2022/12/07 11:34:00;;;;;;;4.90;0.45;;;6.60;99.90;;;;;;5012075;28;20445;-44
2022/12/07 11:36:28;;;;;;;2.28;0.30;;;6.50;99.90;;;;;;4983023;28;20426;-40
2022/12/07 11:38:58;;;;;;;2.67;0.50;;;6.50;99.90;;;;;;4979934;28;20045;-39
2022/12/07 11:41:29;;;;;;;2.25;0.28;;;6.50;99.90;;;;;;5000691;28;20069;-41
2022/12/07 11:44:14;;;;;;;4.72;0.30;;;6.50;99.90;;;;;;5003474;28;20046;-40
2022/12/07 11:46:45;;;;;;;2.97;0.60;;;6.50;99.90;;;;;;4997795;28;20559;-41
2022/12/07 11:49:36;;;;;;;4.75;0.75;;;6.50;99.90;;;;;;5008854;28;20168;-41
2022/12/07 11:52:04;;;;;;;2.67;0.25;;;6.60;99.90;;;;;;4994157;28;20050;-39
2022/12/07 11:54:38;;;;;;;2.63;0.30;;;6.70;99.90;;;;;;5004564;28;20045;-42
2022/12/07 11:57:10;;;;;;;3.78;0.40;;;6.80;99.90;;;;;;5007940;28;20407;-40
2022/12/07 11:59:50;;;;;;;5.18;0.30;;;6.70;99.90;;;;;;5007619;28;20069;-43
2022/12/07 12:02:22;;;;;;;1.80;0.20;;;6.70;99.90;;;;;;5009989;28;20056;-39
2022/12/07 12:04:53;;;;;;;;;;;6.60;99.90;;;;;;5009195;28;20041;-40
2022/12/07 12:07:26;;;;;;;3.22;0.40;;;6.60;99.90;;;;;;5010482;28;19921;-41
2022/12/07 12:09:58;;;;;;;5.57;0.80;;;6.60;99.90;;;;;;5004907;28;20038;-41
2022/12/07 12:12:38;;;;;;;2.67;0.30;;;6.80;99.90;;;;;;5010111;28;21606;-40
2022/12/07 12:15:28;;;;;;;3.47;0.40;;;6.90;99.90;;;;;;5000039;28;20085;-40
2022/12/07 12:18:03;;;;;;;7.00;0.30;;;7.10;99.90;;;;;;5012046;28;20046;-41
2022/12/07 12:20:49;;;;;;;3.58;1.10;;;7.10;99.90;;;;;;5004572;28;20136;-39
2022/12/07 12:23:45;;;;;;;3.47;0.38;;;7.30;99.90;;;;;;4993921;28;20495;-39
2022/12/07 12:26:17;;;;;;;7.38;0.30;;;7.50;99.90;;;;;;5005589;28;20038;-44
2022/12/07 12:29:06;;;;;;;3.45;0.40;;;8.00;99.90;;;;;;5007088;28;20088;-40
2022/12/07 12:31:36;;;;;;;7.45;0.50;;;8.80;99.90;;;;;;5012971;28;20044;-40
2022/12/07 12:34:23;;;;;;;3.60;0.85;;;9.20;99.90;;;;;;4997074;28;20042;-40
2022/12/07 12:36:49;;;;;;;4.60;1.70;;;9.20;99.90;;;;;;5000943;28;20081;-40
2022/12/07 12:39:18;;;;;;;2.70;0.38;;;8.80;99.90;;;;;;4991448;28;20547;-42
2022/12/07 12:44:15;;;;;;;1.35;0.20;;;8.20;99.90;;;;;;5004742;28;20042;-41
2022/12/07 12:46:55;;;;;;;3.60;0.30;;;8.00;99.90;;;;;;5002632;28;20140;-41
2022/12/07 12:49:21;;;;;;;2.47;0.30;;;8.10;99.90;;;;;;5008206;28;20046;-41
2022/12/07 12:51:52;;;;;;;1.25;0.30;;;8.20;99.90;;;;;;5006384;28;20092;-40
2022/12/07 12:54:18;;;;;;;4.80;0.30;;;8.10;99.90;;;;;;5005393;28;20446;-42
2022/12/07 12:56:59;;;;;;;2.83;0.40;;;7.90;99.90;;;;;;5007142;28;20049;-40
2022/12/07 12:59:29;;;;;;;3.75;0.35;;;7.60;99.90;;;;;;5010322;28;20573;-42
2022/12/07 13:02:15;;;;;;;3.67;0.75;;;7.40;99.90;;;;;;5007775;28;20487;-42
2022/12/07 13:07:51;;;;;;;6.50;0.73;;;7.10;99.90;;;;;;5347176;22;20060;-82
2022/12/07 13:10:34;;;;;;;4.25;0.40;;;7.00;99.90;;;;;;5005340;28;20037;-86
2022/12/07 13:15:37;;;;;;;2.30;0.22;;;6.90;99.90;;;;;;4997478;22;20050;-46
2022/12/07 13:18:23;;;;;;;3.05;0.60;;;6.70;99.90;;;;;;4986443;28;20042;-46
2022/12/07 13:21:02;;;;;;;3.92;0.30;;;6.60;99.90;;;;;;4986326;28;20060;-47
2022/12/07 13:23:32;;;;;;;3.75;0.40;;;6.50;99.90;;;;;;4983249;28;20034;-43
2022/12/07 13:26:23;;;;;;;3.17;0.35;;;6.40;99.90;;;;;;4986707;28;20044;-43
2022/12/07 13:28:51;;;;;;;5.15;0.50;;;6.40;99.90;;;;;;4984846;28;20492;-41